Time;durP1;ratioP1;P1;durP2;ratioP2;P2;SDS_P1;SDS_P2;PMS_P1;PMS_P2;Temp;Humidity;BMP_temperature;BMP_pressure;BME280_temperature;BME280_humidity;BME280_pressure;Samples;Min_cycle;Max_cycle;Signal;HPM_P1;HPM_P2
2020/12/12 00:01:02;;;;;;;22.15;20.55;;;5.00;92.00;;;;;;5015358;28;20531;-77
2020/12/12 00:03:29;;;;;;;22.33;20.13;;;5.00;92.20;;;;;;5007464;28;20195;-77
2020/12/12 00:05:55;;;;;;;22.63;20.98;;;5.00;92.50;;;;;;5015130;28;20227;-77
2020/12/12 00:08:22;;;;;;;21.02;19.45;;;5.10;92.60;;;;;;5015297;28;20227;-77
2020/12/12 00:10:49;;;;;;;21.02;19.63;;;5.10;92.50;;;;;;5015294;28;20199;-77
2020/12/12 00:13:16;;;;;;;21.30;19.88;;;5.10;92.20;;;;;;5015159;28;20200;-77
2020/12/12 00:15:42;;;;;;;21.45;20.02;;;5.10;92.40;;;;;;5015694;28;20216;-77
2020/12/12 00:18:09;;;;;;;22.63;21.02;;;5.20;92.10;;;;;;5016968;28;20242;-77
2020/12/12 00:20:36;;;;;;;21.48;20.08;;;5.10;92.40;;;;;;5015859;28;20209;-77
2020/12/12 00:23:02;;;;;;;21.52;19.67;;;5.10;92.50;;;;;;5015487;28;20206;-77
2020/12/12 00:25:29;;;;;;;22.40;20.90;;;5.10;92.60;;;;;;5015507;28;20200;-77
2020/12/12 00:27:56;;;;;;;20.45;19.05;;;5.20;92.60;;;;;;5015126;28;20713;-77
2020/12/12 00:30:23;;;;;;;22.88;21.38;;;5.20;92.60;;;;;;5015551;28;20197;-77
2020/12/12 00:32:49;;;;;;;21.10;19.50;;;5.20;92.30;;;;;;5014842;28;20227;-77
2020/12/12 00:35:16;;;;;;;22.08;20.67;;;5.20;92.20;;;;;;5014564;28;20204;-77
2020/12/12 00:37:42;;;;;;;21.67;20.17;;;5.30;92.10;;;;;;5014939;28;20723;-77
2020/12/12 00:40:08;;;;;;;21.50;20.17;;;5.30;91.70;;;;;;5014903;28;20212;-77
2020/12/12 00:42:35;;;;;;;21.92;20.33;;;5.20;92.10;;;;;;5014565;28;20200;-77
2020/12/12 00:45:02;;;;;;;22.52;20.92;;;5.20;92.00;;;;;;5014766;28;20204;-77
2020/12/12 00:47:28;;;;;;;21.63;20.02;;;5.20;92.20;;;;;;5014104;28;20229;-77
2020/12/12 00:49:55;;;;;;;22.08;20.48;;;5.20;92.10;;;;;;5014262;28;20209;-77
2020/12/12 00:52:21;;;;;;;21.52;19.83;;;5.20;92.20;;;;;;5014450;28;20212;-77
2020/12/12 00:54:47;;;;;;;51.05;22.23;;;5.30;92.10;;;;;;5014152;28;20682;-77
2020/12/12 00:57:14;;;;;;;20.10;18.83;;;5.30;92.00;;;;;;5014263;28;20222;-77
2020/12/12 00:59:40;;;;;;;20.48;19.17;;;5.20;92.00;;;;;;5014504;28;20239;-77
2020/12/12 01:02:07;;;;;;;20.35;19.02;;;5.30;91.90;;;;;;5014055;28;20190;-77
2020/12/12 01:04:34;;;;;;;21.15;19.65;;;5.30;91.60;;;;;;5014286;28;20658;-77
2020/12/12 01:07:00;;;;;;;20.77;19.40;;;5.40;91.40;;;;;;5013810;28;20706;-77
2020/12/12 01:09:26;;;;;;;20.80;19.50;;;5.40;91.60;;;;;;5013853;28;20667;-77
2020/12/12 01:11:55;;;;;;;1999.90;441.77;;;5.40;91.70;;;;;;5014108;28;20667;-77
2020/12/12 01:14:21;;;;;;;19.80;18.40;;;5.40;92.70;;;;;;5013854;28;20200;-77
2020/12/12 01:16:47;;;;;;;19.52;18.23;;;5.40;96.70;;;;;;5013848;28;20218;-77
2020/12/12 01:19:15;;;;;;;19.45;17.95;;;5.40;95.50;;;;;;5013673;28;20188;-77
2020/12/12 01:21:41;;;;;;;18.58;17.38;;;5.40;95.30;;;;;;5013971;28;20205;-77
2020/12/12 01:24:07;;;;;;;18.60;17.50;;;5.40;94.90;;;;;;5013832;28;20209;-77
2020/12/12 01:26:34;;;;;;;20.00;18.60;;;5.40;94.00;;;;;;5013579;28;20235;-77
2020/12/12 01:29:00;;;;;;;20.70;19.25;;;5.50;93.40;;;;;;5013292;28;20198;-77
2020/12/12 01:31:27;;;;;;;22.48;20.98;;;5.50;92.60;;;;;;5013727;28;20199;-77
2020/12/12 01:33:53;;;;;;;20.40;19.02;;;5.50;92.10;;;;;;5013400;28;20195;-77
2020/12/12 01:36:20;;;;;;;21.33;19.83;;;5.50;91.90;;;;;;5013469;28;20222;-77
2020/12/12 01:38:47;;;;;;;19.95;18.55;;;5.60;91.80;;;;;;5013507;28;20611;-77
2020/12/12 01:41:13;;;;;;;20.40;19.10;;;5.60;91.50;;;;;;4997974;28;20215;-77
2020/12/12 01:43:39;;;;;;;21.10;19.73;;;5.50;91.00;;;;;;5013549;28;20203;-77
2020/12/12 01:46:06;;;;;;;19.70;18.38;;;5.50;91.10;;;;;;5013257;28;20593;-77
2020/12/12 01:48:33;;;;;;;19.67;18.35;;;5.60;91.10;;;;;;5013285;28;20652;-77
2020/12/12 01:50:59;;;;;;;20.05;18.85;;;5.60;90.60;;;;;;5013236;28;20200;-77
2020/12/12 01:53:28;;;;;;;18.85;17.65;;;5.60;90.50;;;;;;5013340;28;20200;-77
2020/12/12 01:55:54;;;;;;;19.25;18.05;;;5.60;90.80;;;;;;5013202;28;20204;-77
2020/12/12 01:58:20;;;;;;;19.95;18.65;;;5.70;90.80;;;;;;5013034;28;20199;-77
2020/12/12 02:00:47;;;;;;;18.80;17.60;;;5.60;90.70;;;;;;5013038;28;20200;-77
2020/12/12 02:03:13;;;;;;;19.05;17.90;;;5.50;91.30;;;;;;5012471;28;20194;-77
2020/12/12 02:05:42;;;;;;;19.52;18.30;;;5.60;91.40;;;;;;5012772;28;20214;-77
2020/12/12 02:08:13;;;;;;;19.67;18.38;;;5.50;91.60;;;;;;5013235;28;20203;-77
2020/12/12 02:10:42;;;;;;;20.00;18.58;;;5.50;92.20;;;;;;5012642;28;20196;-77
2020/12/12 02:13:10;;;;;;;22.45;20.08;;;5.60;92.40;;;;;;5013065;28;20666;-77
2020/12/12 02:15:36;;;;;;;19.50;18.40;;;5.60;91.90;;;;;;5012843;28;20207;-77
2020/12/12 02:18:05;;;;;;;19.88;18.67;;;5.70;91.40;;;;;;5013023;28;20207;-77
2020/12/12 02:20:31;;;;;;;19.30;18.08;;;5.60;91.40;;;;;;5012829;28;20228;-77
2020/12/12 02:22:59;;;;;;;21.02;19.63;;;5.60;91.40;;;;;;5012899;28;20199;-77
2020/12/12 02:25:25;;;;;;;19.70;18.50;;;5.60;93.00;;;;;;5012869;28;20204;-77
2020/12/12 02:27:54;;;;;;;19.75;18.45;;;5.50;94.70;;;;;;5012563;28;20225;-77
2020/12/12 02:30:21;;;;;;;19.83;18.63;;;5.50;93.50;;;;;;5012661;28;20680;-77
2020/12/12 02:32:49;;;;;;;20.10;18.80;;;5.50;93.00;;;;;;5012864;28;20206;-77
2020/12/12 02:35:17;;;;;;;21.02;19.50;;;5.50;92.00;;;;;;5012484;28;20208;-77
2020/12/12 02:37:43;;;;;;;20.90;19.50;;;5.50;92.10;;;;;;5012532;28;20275;-77
2020/12/12 02:40:11;;;;;;;20.13;18.83;;;5.50;91.60;;;;;;5012561;28;20560;-77
2020/12/12 02:42:37;;;;;;;520.28;66.07;;;5.50;91.70;;;;;;5012747;28;20202;-77
2020/12/12 02:45:03;;;;;;;20.13;18.80;;;5.50;91.40;;;;;;5012411;28;20190;-77
2020/12/12 02:47:34;;;;;;;20.75;19.20;;;5.50;92.90;;;;;;5012623;28;20688;-77
2020/12/12 02:50:10;;;;;;;19.40;18.30;;;5.50;92.10;;;;;;5012887;28;20225;-77
2020/12/12 02:52:37;;;;;;;19.98;18.70;;;5.50;91.30;;;;;;5012878;28;20235;-77
2020/12/12 02:55:05;;;;;;;21.10;19.65;;;5.60;91.30;;;;;;5011516;28;20190;-77
2020/12/12 02:57:33;;;;;;;20.05;18.85;;;5.70;90.30;;;;;;5012032;28;20213;-77
2020/12/12 03:00:00;;;;;;;21.10;19.60;;;5.60;91.00;;;;;;5012749;28;20198;-77
2020/12/12 03:02:26;;;;;;;1020.10;140.18;;;5.70;90.70;;;;;;5012882;28;20218;-77
2020/12/12 03:04:52;;;;;;;19.30;18.10;;;5.60;93.90;;;;;;5011933;28;20197;-77
2020/12/12 03:07:19;;;;;;;109.15;26.40;;;5.60;93.40;;;;;;5012308;28;20254;-77
2020/12/12 03:09:46;;;;;;;19.17;17.90;;;5.60;92.80;;;;;;5012472;28;20194;-77
2020/12/12 03:12:12;;;;;;;741.60;88.28;;;5.60;93.60;;;;;;5012620;28;20194;-77
2020/12/12 03:14:39;;;;;;;1999.90;491.23;;;5.60;97.00;;;;;;5015151;28;20629;-77
2020/12/12 03:17:09;;;;;;;19.00;17.73;;;5.60;98.60;;;;;;5015821;28;20220;-77
2020/12/12 03:19:36;;;;;;;18.35;17.15;;;5.60;97.70;;;;;;5016217;28;20658;-77
2020/12/12 03:22:02;;;;;;;19.30;17.92;;;5.60;96.50;;;;;;5016055;28;20208;-77
2020/12/12 03:24:28;;;;;;;20.55;19.15;;;5.60;95.70;;;;;;5015918;28;20560;-77
2020/12/12 03:26:55;;;;;;;19.95;18.58;;;5.70;93.90;;;;;;5015601;28;20585;-77
2020/12/12 03:29:21;;;;;;;21.35;19.83;;;5.70;92.60;;;;;;5015746;28;20441;-77
2020/12/12 03:31:48;;;;;;;19.40;18.20;;;5.70;91.90;;;;;;5016311;28;20201;-77
2020/12/12 03:34:15;;;;;;;19.40;18.20;;;5.70;91.90;;;;;;5015369;28;20192;-77
2020/12/12 03:36:42;;;;;;;18.98;17.77;;;5.70;93.00;;;;;;5015718;28;20587;-77
2020/12/12 03:39:08;;;;;;;20.25;18.85;;;5.60;92.30;;;;;;5015890;28;20202;-77
2020/12/12 03:41:35;;;;;;;19.42;18.23;;;5.60;92.20;;;;;;5015552;28;20207;-77
2020/12/12 03:44:01;;;;;;;19.55;18.35;;;5.60;91.70;;;;;;5015984;28;20198;-77
2020/12/12 03:46:27;;;;;;;19.98;18.67;;;5.70;91.30;;;;;;5015212;28;20671;-77
2020/12/12 03:48:55;;;;;;;20.55;19.25;;;5.70;90.60;;;;;;5015766;28;20203;-77
2020/12/12 03:51:21;;;;;;;68.25;22.73;;;5.80;90.00;;;;;;5015284;28;20689;-77
2020/12/12 03:53:48;;;;;;;20.00;18.70;;;5.80;89.90;;;;;;5015691;28;20200;-77
2020/12/12 03:56:14;;;;;;;368.58;55.28;;;5.70;91.00;;;;;;5015130;28;20253;-77
2020/12/12 03:58:40;;;;;;;50.63;20.67;;;5.70;92.10;;;;;;5015467;28;20197;-77
2020/12/12 04:01:07;;;;;;;81.93;25.05;;;5.70;94.50;;;;;;5015223;28;20191;-77
2020/12/12 04:03:33;;;;;;;19.95;18.52;;;5.70;94.70;;;;;;5015647;28;20208;-77
2020/12/12 04:06:00;;;;;;;21.05;19.55;;;5.60;94.10;;;;;;5014836;28;20226;-77
2020/12/12 04:08:27;;;;;;;1999.90;285.92;;;5.60;94.50;;;;;;5014604;28;20190;-77
2020/12/12 04:10:53;;;;;;;20.50;19.08;;;5.70;95.90;;;;;;5014897;28;20193;-77
2020/12/12 04:13:19;;;;;;;19.85;18.48;;;5.70;95.00;;;;;;5015132;28;20210;-77
2020/12/12 04:15:46;;;;;;;20.35;19.05;;;5.70;93.40;;;;;;5014722;28;20197;-77
2020/12/12 04:18:12;;;;;;;21.58;20.17;;;5.70;92.70;;;;;;5015244;28;20201;-77
2020/12/12 04:20:38;;;;;;;20.50;19.15;;;5.70;91.50;;;;;;5014472;28;20193;-77
2020/12/12 04:23:05;;;;;;;21.08;19.75;;;5.70;91.60;;;;;;5015041;28;20204;-77
2020/12/12 04:25:32;;;;;;;21.52;19.83;;;5.70;91.00;;;;;;5014231;28;20197;-77
2020/12/12 04:27:58;;;;;;;21.58;20.27;;;5.70;91.00;;;;;;5014622;28;20256;-77
2020/12/12 04:30:24;;;;;;;22.02;20.58;;;5.70;90.50;;;;;;5014596;28;20190;-77
2020/12/12 04:32:51;;;;;;;22.63;21.23;;;5.70;90.60;;;;;;5014917;28;20205;-77
2020/12/12 04:35:17;;;;;;;22.55;20.98;;;5.70;90.70;;;;;;5014259;28;20208;-77
2020/12/12 04:37:43;;;;;;;21.77;20.35;;;5.70;90.50;;;;;;5014541;28;20217;-77
2020/12/12 04:40:11;;;;;;;20.45;19.15;;;5.70;90.50;;;;;;5014682;28;20198;-77
2020/12/12 04:42:42;;;;;;;21.15;19.75;;;5.60;90.30;;;;;;5014480;28;20687;-77
2020/12/12 04:45:09;;;;;;;21.05;19.65;;;5.70;90.40;;;;;;5014616;28;20672;-77
2020/12/12 04:47:35;;;;;;;21.42;20.02;;;5.60;90.40;;;;;;5014202;28;20242;-77
2020/12/12 04:50:03;;;;;;;103.95;27.98;;;5.60;90.40;;;;;;5014540;28;20198;-77
2020/12/12 04:52:31;;;;;;;21.35;20.02;;;5.70;90.60;;;;;;5014278;28;20215;-77
2020/12/12 04:55:05;;;;;;;1104.38;133.60;;;5.60;92.80;;;;;;5014424;28;20212;-77
2020/12/12 04:57:34;;;;;;;57.08;23.05;;;5.60;93.40;;;;;;5014273;28;20275;-77
2020/12/12 05:00:01;;;;;;;20.77;19.25;;;5.60;97.20;;;;;;5014251;28;20197;-77
2020/12/12 05:02:28;;;;;;;20.55;19.25;;;5.70;94.90;;;;;;5014094;28;20219;-77
2020/12/12 05:04:55;;;;;;;22.63;21.13;;;5.60;94.00;;;;;;5014284;28;20212;-77
2020/12/12 05:07:21;;;;;;;20.48;19.17;;;5.60;93.50;;;;;;5013857;28;20225;-77
2020/12/12 05:09:47;;;;;;;20.65;19.25;;;5.70;92.70;;;;;;5014170;28;20202;-77
2020/12/12 05:12:14;;;;;;;20.40;19.00;;;5.70;92.40;;;;;;5013931;28;20237;-77
2020/12/12 05:14:41;;;;;;;20.88;19.58;;;5.70;92.10;;;;;;5014123;28;20204;-77
2020/12/12 05:17:08;;;;;;;21.00;19.60;;;5.80;92.30;;;;;;5013859;28;20220;-77
2020/12/12 05:19:35;;;;;;;22.17;20.67;;;5.80;92.20;;;;;;5013828;28;20198;-77
2020/12/12 05:22:03;;;;;;;22.27;20.77;;;5.90;91.00;;;;;;5013684;28;20192;-77
2020/12/12 05:24:30;;;;;;;20.98;19.40;;;5.90;90.70;;;;;;5014078;28;20203;-77
2020/12/12 05:27:00;;;;;;;21.33;19.92;;;5.90;90.60;;;;;;5013546;28;20222;-77
2020/12/12 05:29:27;;;;;;;37.00;20.30;;;5.80;90.80;;;;;;5013299;28;20197;-77
2020/12/12 05:31:56;;;;;;;20.95;19.45;;;5.80;92.40;;;;;;5013817;28;20208;-77
2020/12/12 05:34:24;;;;;;;928.72;123.53;;;5.90;94.30;;;;;;5013579;28;20206;-77
2020/12/12 05:36:50;;;;;;;180.60;30.25;;;5.90;93.80;;;;;;5012383;28;20206;-77
2020/12/12 05:39:17;;;;;;;21.10;19.70;;;5.90;93.80;;;;;;5013677;28;20216;-77
2020/12/12 05:41:45;;;;;;;21.10;19.70;;;5.90;93.20;;;;;;5013831;28;20198;-77
2020/12/12 05:44:12;;;;;;;20.70;19.25;;;5.90;93.60;;;;;;5013450;28;20205;-77
2020/12/12 05:46:39;;;;;;;19.80;18.40;;;5.90;93.70;;;;;;5013374;28;20582;-77
2020/12/12 05:49:06;;;;;;;20.73;19.33;;;5.90;95.30;;;;;;5013638;28;20205;-77
2020/12/12 05:51:33;;;;;;;19.90;18.40;;;6.00;93.80;;;;;;5013210;28;21335;-77
2020/12/12 05:54:00;;;;;;;21.25;19.55;;;6.00;93.20;;;;;;5013532;28;20198;-77
2020/12/12 05:56:30;;;;;;;22.27;20.67;;;6.10;92.50;;;;;;5013141;28;20210;-77
2020/12/12 05:58:57;;;;;;;20.50;19.20;;;6.10;92.00;;;;;;5013340;28;20202;-77
2020/12/12 06:01:26;;;;;;;93.15;25.55;;;6.00;92.60;;;;;;5013099;28;20194;-77
2020/12/12 06:03:54;;;;;;;21.92;19.65;;;6.00;94.90;;;;;;5013346;28;20228;-77
2020/12/12 06:06:24;;;;;;;20.58;19.17;;;6.00;93.10;;;;;;5012842;28;20588;-77
2020/12/12 06:09:00;;;;;;;19.63;18.30;;;6.00;92.90;;;;;;5013233;28;20211;-77
2020/12/12 06:11:29;;;;;;;20.77;19.38;;;6.10;92.60;;;;;;5012971;28;20204;-77
2020/12/12 06:13:58;;;;;;;20.13;18.75;;;6.00;92.40;;;;;;5013058;28;20200;-77
2020/12/12 06:16:27;;;;;;;19.98;18.67;;;6.10;92.10;;;;;;5012717;28;20260;-77
2020/12/12 06:19:11;;;;;;;21.13;19.60;;;6.10;92.00;;;;;;5012970;28;20734;-77
2020/12/12 06:21:40;;;;;;;20.10;18.70;;;6.10;93.00;;;;;;5012734;28;20786;-77
2020/12/12 06:24:10;;;;;;;19.55;18.25;;;6.10;93.70;;;;;;5012798;28;20193;-77
2020/12/12 06:26:47;;;;;;;19.70;18.30;;;6.10;94.40;;;;;;4996618;28;20221;-77
2020/12/12 06:29:17;;;;;;;19.23;18.02;;;6.10;93.60;;;;;;5012717;28;20198;-77
2020/12/12 06:31:44;;;;;;;19.05;17.70;;;6.20;92.90;;;;;;5013213;28;20560;-77
2020/12/12 06:34:10;;;;;;;20.48;18.95;;;6.10;93.80;;;;;;5012582;28;20282;-77
2020/12/12 06:36:44;;;;;;;19.45;18.25;;;6.10;93.10;;;;;;5012691;28;20703;-77
2020/12/12 06:39:25;;;;;;;18.92;17.65;;;6.10;92.70;;;;;;5012848;28;20206;-77
2020/12/12 06:41:53;;;;;;;17.17;16.08;;;6.00;92.70;;;;;;5012581;28;20194;-77
2020/12/12 06:44:33;;;;;;;20.48;19.17;;;6.00;92.60;;;;;;5012691;28;20639;-77
2020/12/12 06:47:00;;;;;;;20.83;19.33;;;6.10;92.20;;;;;;5012454;28;20231;-77
2020/12/12 06:49:27;;;;;;;36.58;20.20;;;6.10;92.10;;;;;;5015259;28;20200;-77
2020/12/12 06:51:55;;;;;;;20.80;19.33;;;6.00;92.90;;;;;;5016524;28;20190;-77
2020/12/12 06:54:21;;;;;;;19.63;18.33;;;6.00;93.10;;;;;;5016500;28;20194;-77
2020/12/12 06:56:48;;;;;;;19.23;18.02;;;6.10;93.30;;;;;;5016543;28;20218;-77
2020/12/12 06:59:29;;;;;;;18.48;17.38;;;6.20;92.40;;;;;;5016264;28;20198;-77
2020/12/12 07:01:56;;;;;;;20.83;19.52;;;6.30;91.30;;;;;;5016789;28;20240;-77
2020/12/12 07:04:28;;;;;;;20.42;19.17;;;6.30;91.20;;;;;;5016695;28;20212;-77
2020/12/12 07:07:00;;;;;;;19.48;18.27;;;6.20;91.00;;;;;;5016146;28;20661;-77
2020/12/12 07:09:27;;;;;;;93.43;24.38;;;6.20;90.90;;;;;;5016242;28;20232;-77
2020/12/12 07:11:55;;;;;;;75.55;22.20;;;6.30;92.40;;;;;;5016111;28;20209;-77
2020/12/12 07:14:21;;;;;;;19.70;18.42;;;6.20;93.20;;;;;;5016363;28;20194;-77
2020/12/12 07:16:51;;;;;;;19.48;18.20;;;6.20;93.10;;;;;;5016127;28;20249;-77
2020/12/12 07:19:27;;;;;;;19.35;18.15;;;6.30;92.20;;;;;;5016204;28;20203;-77
2020/12/12 07:21:54;;;;;;;19.63;18.52;;;6.30;91.80;;;;;;5016011;28;20197;-77
2020/12/12 07:24:21;;;;;;;18.92;17.73;;;6.30;92.90;;;;;;5016185;28;20234;-77
2020/12/12 07:26:47;;;;;;;20.73;19.52;;;6.30;92.30;;;;;;5015921;28;20231;-77
2020/12/12 07:29:13;;;;;;;19.23;18.02;;;6.40;91.50;;;;;;5015886;28;20213;-77
2020/12/12 07:31:40;;;;;;;20.55;19.23;;;6.40;90.80;;;;;;5016204;28;20196;-77
2020/12/12 07:34:06;;;;;;;20.83;19.42;;;6.40;90.50;;;;;;5015643;28;20203;-77
2020/12/12 07:36:33;;;;;;;19.33;18.02;;;6.50;90.30;;;;;;5015648;28;20218;-77
2020/12/12 07:39:07;;;;;;;58.17;22.42;;;6.40;90.70;;;;;;5015470;28;20195;-77
2020/12/12 07:41:42;;;;;;;20.45;19.15;;;6.40;91.30;;;;;;5015896;28;20197;-77
2020/12/12 07:44:09;;;;;;;18.95;17.55;;;6.40;91.90;;;;;;5016064;28;20201;-77
2020/12/12 07:46:39;;;;;;;19.98;18.77;;;6.40;91.60;;;;;;5015531;28;20253;-77
2020/12/12 07:49:06;;;;;;;20.75;19.45;;;6.50;90.80;;;;;;5015704;28;20224;-77
2020/12/12 07:51:32;;;;;;;19.13;17.92;;;6.50;90.10;;;;;;5015828;28;20199;-77
2020/12/12 07:53:59;;;;;;;19.77;18.50;;;6.50;90.00;;;;;;5015639;28;20208;-77
2020/12/12 07:56:26;;;;;;;20.02;18.70;;;6.60;89.70;;;;;;5015557;28;20221;-77
2020/12/12 07:59:00;;;;;;;19.45;18.35;;;6.60;89.80;;;;;;5015323;28;20220;-77
2020/12/12 08:01:27;;;;;;;20.02;18.73;;;6.60;90.90;;;;;;4994904;28;20196;-77
2020/12/12 08:03:54;;;;;;;19.98;18.77;;;6.60;89.90;;;;;;4996004;28;20205;-77
2020/12/12 08:06:27;;;;;;;19.88;18.67;;;6.60;89.30;;;;;;4995371;28;20566;-77
2020/12/12 08:08:55;;;;;;;19.95;18.45;;;6.70;89.00;;;;;;4995905;28;20201;-78
2020/12/12 08:11:21;;;;;;;20.63;19.25;;;6.70;90.00;;;;;;5015041;28;20194;-77
2020/12/12 08:14:06;;;;;;;22.00;20.60;;;6.70;90.10;;;;;;5015366;28;20209;-77
2020/12/12 08:16:39;;;;;;;21.27;19.92;;;6.70;90.00;;;;;;5015099;28;20222;-77
2020/12/12 08:19:06;;;;;;;20.63;19.40;;;6.70;89.30;;;;;;5014977;28;20775;-77
2020/12/12 08:21:33;;;;;;;20.98;19.67;;;6.70;88.50;;;;;;5014937;28;20670;-77
2020/12/12 08:24:00;;;;;;;18.67;17.58;;;6.70;88.50;;;;;;5015186;28;20206;-77
2020/12/12 08:26:27;;;;;;;18.98;17.77;;;6.80;91.10;;;;;;5014744;28;20225;-77
2020/12/12 08:28:54;;;;;;;20.15;18.85;;;6.70;91.30;;;;;;5014826;28;20652;-77
2020/12/12 08:31:21;;;;;;;20.67;19.45;;;6.80;89.80;;;;;;5014822;28;20201;-77
2020/12/12 08:33:55;;;;;;;20.63;19.33;;;6.80;88.90;;;;;;5014322;28;20202;-77
2020/12/12 08:36:24;;;;;;;21.27;19.88;;;6.90;88.70;;;;;;5014353;28;20221;-77
2020/12/12 08:38:52;;;;;;;19.45;18.30;;;6.90;88.70;;;;;;5014750;28;20657;-77
2020/12/12 08:41:20;;;;;;;19.85;18.65;;;6.90;89.10;;;;;;5014806;28;20205;-77
2020/12/12 08:43:46;;;;;;;20.23;18.92;;;7.00;88.30;;;;;;5014524;28;20189;-77
2020/12/12 08:46:16;;;;;;;18.77;17.65;;;7.00;89.40;;;;;;5014447;28;20655;-77
2020/12/12 08:48:44;;;;;;;19.70;18.50;;;6.90;91.00;;;;;;5014429;28;20220;-77
2020/12/12 08:51:12;;;;;;;20.05;18.73;;;7.00;89.30;;;;;;5014675;28;20201;-77
2020/12/12 08:53:40;;;;;;;21.17;19.90;;;7.10;88.60;;;;;;5014132;28;20681;-77
2020/12/12 08:56:12;;;;;;;19.52;18.23;;;7.10;88.30;;;;;;5014378;28;20221;-77
2020/12/12 08:58:45;;;;;;;21.52;20.10;;;7.20;87.90;;;;;;5014125;28;20659;-77
2020/12/12 09:01:13;;;;;;;20.17;18.88;;;7.20;87.40;;;;;;5014466;28;20202;-77
2020/12/12 09:03:55;;;;;;;19.42;18.33;;;7.20;88.70;;;;;;5014210;28;20197;-77
2020/12/12 09:06:23;;;;;;;18.88;17.65;;;7.30;87.40;;;;;;5012385;28;20252;-77
2020/12/12 09:09:07;;;;;;;19.25;17.85;;;7.30;88.20;;;;;;5014404;28;20652;-77
2020/12/12 09:11:34;;;;;;;18.85;17.75;;;7.30;88.50;;;;;;5014149;28;20201;-77
2020/12/12 09:14:01;;;;;;;19.13;17.83;;;7.40;89.10;;;;;;5014110;28;20648;-77
2020/12/12 09:16:27;;;;;;;19.30;18.20;;;7.50;88.40;;;;;;5013994;28;20232;-77
2020/12/12 09:18:54;;;;;;;18.20;16.90;;;7.60;87.90;;;;;;5013687;28;20647;-77
2020/12/12 09:21:21;;;;;;;19.75;18.65;;;7.60;88.20;;;;;;5014043;28;20205;-77
2020/12/12 09:23:48;;;;;;;20.13;18.92;;;7.60;87.50;;;;;;5013397;28;20216;-77
2020/12/12 09:26:14;;;;;;;21.17;19.90;;;7.70;86.80;;;;;;5013624;28;20620;-77
2020/12/12 09:28:41;;;;;;;20.08;19.08;;;7.80;86.30;;;;;;5013693;28;20224;-77
2020/12/12 09:31:07;;;;;;;20.85;19.65;;;7.80;86.40;;;;;;5013951;28;20205;-77
2020/12/12 09:33:34;;;;;;;18.27;17.17;;;7.80;86.80;;;;;;5013429;28;20205;-77
2020/12/12 09:36:03;;;;;;;20.42;19.17;;;7.70;88.50;;;;;;5013622;28;20218;-77
2020/12/12 09:38:30;;;;;;;20.27;19.15;;;7.80;87.60;;;;;;5013422;28;20182;-77
2020/12/12 09:40:57;;;;;;;20.50;19.20;;;7.80;87.90;;;;;;5013404;28;20193;-77
2020/12/12 09:43:23;;;;;;;19.55;18.50;;;7.90;86.70;;;;;;5013161;28;20232;-77
2020/12/12 09:45:50;;;;;;;19.30;18.20;;;8.00;85.70;;;;;;5013422;28;20198;-77
2020/12/12 09:48:16;;;;;;;19.00;17.90;;;8.10;85.20;;;;;;5013174;28;20308;-77
2020/12/12 09:50:43;;;;;;;20.05;19.00;;;8.20;84.50;;;;;;5012921;28;20190;-77
2020/12/12 09:53:10;;;;;;;20.30;19.20;;;8.10;85.10;;;;;;5013226;28;20196;-77
2020/12/12 09:55:39;;;;;;;20.70;19.45;;;8.10;84.80;;;;;;5013185;28;20198;-77
2020/12/12 09:58:06;;;;;;;19.50;18.35;;;8.10;84.60;;;;;;5013379;28;20204;-77
2020/12/12 10:00:34;;;;;;;19.83;18.73;;;8.10;85.10;;;;;;5013172;28;20194;-77
2020/12/12 10:03:00;;;;;;;20.73;19.25;;;8.00;86.10;;;;;;5013352;28;20541;-77
2020/12/12 10:05:27;;;;;;;42.67;21.60;;;8.00;86.60;;;;;;5013181;28;20686;-77
2020/12/12 10:07:55;;;;;;;21.70;20.20;;;8.10;85.70;;;;;;5013064;28;20218;-77
2020/12/12 10:10:22;;;;;;;20.67;19.23;;;8.20;85.90;;;;;;5013248;28;20194;-77
2020/12/12 10:12:49;;;;;;;20.40;19.30;;;8.20;85.70;;;;;;5013083;28;20202;-77
2020/12/12 10:15:17;;;;;;;19.17;18.17;;;8.30;85.80;;;;;;5013142;28;20676;-77
2020/12/12 10:17:43;;;;;;;19.40;18.33;;;8.30;84.40;;;;;;5012571;28;20280;-77
2020/12/12 10:20:10;;;;;;;19.35;18.25;;;8.50;84.30;;;;;;5012986;28;20200;-77
2020/12/12 10:22:36;;;;;;;20.25;19.05;;;8.60;83.80;;;;;;5012744;28;20195;-77
2020/12/12 10:25:04;;;;;;;21.00;19.70;;;8.70;83.50;;;;;;5012460;28;20196;-77
2020/12/12 10:27:30;;;;;;;19.55;18.45;;;8.70;82.90;;;;;;5012736;28;20232;-77
2020/12/12 10:29:57;;;;;;;20.73;19.52;;;8.80;84.20;;;;;;5012537;28;20769;-77
2020/12/12 10:32:24;;;;;;;21.08;19.67;;;8.90;83.50;;;;;;5012953;28;20198;-77
2020/12/12 10:34:50;;;;;;;19.45;18.35;;;9.00;82.30;;;;;;5012593;28;20220;-77
2020/12/12 10:37:17;;;;;;;19.25;18.25;;;9.10;82.30;;;;;;5012767;28;20222;-77
2020/12/12 10:39:49;;;;;;;20.52;19.42;;;9.20;81.50;;;;;;5012972;28;20198;-77
2020/12/12 10:42:16;;;;;;;20.02;18.95;;;9.30;81.10;;;;;;5012971;28;20201;-77
2020/12/12 10:44:42;;;;;;;19.85;18.75;;;9.40;80.90;;;;;;5012787;28;20198;-77
2020/12/12 10:47:09;;;;;;;19.90;18.87;;;9.50;80.40;;;;;;5012532;28;20233;-78
2020/12/12 10:49:36;;;;;;;20.70;19.60;;;9.40;80.70;;;;;;5012579;28;20460;-77
2020/12/12 10:52:02;;;;;;;20.02;18.80;;;9.40;80.40;;;;;;5012715;28;20220;-77
2020/12/12 10:54:29;;;;;;;20.63;19.25;;;9.40;80.50;;;;;;5012102;28;20197;-77
2020/12/12 10:56:55;;;;;;;19.65;18.45;;;9.40;81.20;;;;;;5012258;28;20210;-77
2020/12/12 10:59:22;;;;;;;23.02;21.48;;;9.40;81.70;;;;;;5012472;28;20252;-77
2020/12/12 11:01:52;;;;;;;20.80;19.80;;;9.40;81.20;;;;;;5012754;28;20229;-77
2020/12/12 11:04:20;;;;;;;21.23;20.15;;;9.50;80.20;;;;;;5012854;28;20671;-77
2020/12/12 11:06:47;;;;;;;20.55;19.45;;;9.40;80.10;;;;;;5012366;28;20232;-77
2020/12/12 11:09:13;;;;;;;20.60;19.50;;;9.40;81.50;;;;;;5012540;28;20201;-77
2020/12/12 11:11:40;;;;;;;19.70;18.60;;;9.40;81.00;;;;;;5012657;28;20195;-77
2020/12/12 11:14:06;;;;;;;20.30;19.17;;;9.30;81.00;;;;;;5012736;28;20817;-77
2020/12/12 11:16:33;;;;;;;19.47;18.37;;;9.30;80.60;;;;;;5012477;28;20229;-77
2020/12/12 11:18:59;;;;;;;20.23;19.02;;;9.40;80.70;;;;;;5012177;28;20453;-77
2020/12/12 11:21:27;;;;;;;19.83;18.50;;;9.40;80.70;;;;;;5012357;28;20194;-77
2020/12/12 11:23:53;;;;;;;20.40;19.30;;;9.40;80.40;;;;;;5012595;28;20196;-78
2020/12/12 11:26:20;;;;;;;19.23;18.23;;;9.40;81.00;;;;;;5012364;28;20222;-77
2020/12/12 11:28:46;;;;;;;18.73;17.73;;;9.30;81.30;;;;;;5012122;28;20215;-77
2020/12/12 11:31:16;;;;;;;21.38;19.80;;;9.40;81.70;;;;;;5012867;28;20683;-77
2020/12/12 11:33:44;;;;;;;19.20;18.10;;;9.40;81.60;;;;;;5012149;28;20186;-77
2020/12/12 11:36:30;;;;;;;19.25;18.25;;;9.40;81.80;;;;;;5014798;28;20658;-77
2020/12/12 11:39:01;;;;;;;19.17;18.00;;;9.50;81.20;;;;;;5016141;28;20201;-77
2020/12/12 11:41:44;;;;;;;19.27;18.20;;;9.50;81.50;;;;;;5016020;28;20456;-77
2020/12/12 11:44:31;;;;;;;19.15;17.95;;;9.40;81.90;;;;;;5016059;28;20463;-77
2020/12/12 11:46:57;;;;;;;19.00;18.00;;;9.50;82.20;;;;;;5016022;28;20304;-78
2020/12/12 11:49:24;;;;;;;19.63;18.57;;;9.50;82.30;;;;;;5015937;28;20452;-77
2020/12/12 11:51:50;;;;;;;18.70;17.70;;;9.60;82.10;;;;;;5016139;28;20449;-77
2020/12/12 11:54:17;;;;;;;20.53;19.13;;;9.60;82.20;;;;;;5015914;28;20452;-78
2020/12/12 11:56:44;;;;;;;18.80;17.80;;;9.60;82.20;;;;;;5015776;28;20468;-78
2020/12/12 11:59:13;;;;;;;20.27;19.00;;;9.60;82.40;;;;;;5015686;28;20453;-78
2020/12/12 12:01:39;;;;;;;18.93;17.93;;;9.60;82.50;;;;;;5015189;28;20814;-78
2020/12/12 12:04:06;;;;;;;20.00;18.90;;;9.70;82.60;;;;;;5015323;28;20463;-78
2020/12/12 12:06:33;;;;;;;19.43;18.43;;;9.80;82.00;;;;;;5015309;28;20477;-77
2020/12/12 12:09:17;;;;;;;19.00;18.00;;;9.80;81.70;;;;;;5015259;28;20477;-77
2020/12/12 12:11:45;;;;;;;19.60;18.60;;;9.90;81.40;;;;;;5015066;28;20527;-78
2020/12/12 12:14:11;;;;;;;19.00;18.00;;;9.90;81.30;;;;;;5015534;28;20449;-78
2020/12/12 12:16:39;;;;;;;19.80;18.70;;;9.80;82.40;;;;;;5015778;28;20479;-77
2020/12/12 12:19:07;;;;;;;20.63;19.53;;;9.90;81.40;;;;;;5015461;28;20568;-78
2020/12/12 12:21:35;;;;;;;21.03;19.70;;;9.70;81.60;;;;;;5016052;28;20476;-78
2020/12/12 12:24:03;;;;;;;20.63;19.43;;;9.60;82.10;;;;;;5015203;28;20453;-77
2020/12/12 12:26:30;;;;;;;20.77;19.57;;;9.70;82.40;;;;;;5015027;28;20573;-77
2020/12/12 12:28:57;;;;;;;20.48;19.13;;;9.70;83.00;;;;;;5014852;28;20516;-77
2020/12/12 12:31:24;;;;;;;20.20;19.00;;;9.70;83.40;;;;;;5014949;28;20235;-77
2020/12/12 12:33:50;;;;;;;19.25;18.25;;;9.70;83.20;;;;;;5015002;28;20457;-77
2020/12/12 12:36:17;;;;;;;19.27;18.05;;;9.70;82.50;;;;;;5014783;28;20221;-76
2020/12/12 12:38:43;;;;;;;20.70;19.50;;;9.70;82.60;;;;;;5014966;28;20195;-77